sensor_id;sensor_type;location;lat;lon;timestamp;P1;durP1;ratioP1;P2;durP2;ratioP2
60078;SDS011;45951;45.824;8.824;2023-03-01T00:05:50;24.67;;;13.93;;
60078;SDS011;45951;45.824;8.824;2023-03-01T00:11:51;23.88;;;14.52;;
60078;SDS011;45951;45.824;8.824;2023-03-01T00:17:51;23.02;;;14.15;;
60078;SDS011;45951;45.824;8.824;2023-03-01T00:23:51;26.08;;;15.18;;
60078;SDS011;45951;45.824;8.824;2023-03-01T00:29:52;23.90;;;14.93;;
60078;SDS011;45951;45.824;8.824;2023-03-01T00:35:52;24.05;;;14.35;;
60078;SDS011;45951;45.824;8.824;2023-03-01T00:41:52;24.08;;;14.80;;
60078;SDS011;45951;45.824;8.824;2023-03-01T00:47:53;24.92;;;13.65;;
60078;SDS011;45951;45.824;8.824;2023-03-01T00:53:55;23.05;;;13.90;;
60078;SDS011;45951;45.824;8.824;2023-03-01T00:59:56;26.25;;;14.63;;
60078;SDS011;45951;45.824;8.824;2023-03-01T01:05:57;23.48;;;13.45;;
60078;SDS011;45951;45.824;8.824;2023-03-01T01:11:57;26.77;;;15.88;;
60078;SDS011;45951;45.824;8.824;2023-03-01T01:17:58;25.58;;;15.10;;
60078;SDS011;45951;45.824;8.824;2023-03-01T01:23:58;24.80;;;14.55;;
60078;SDS011;45951;45.824;8.824;2023-03-01T01:29:59;26.40;;;15.45;;
60078;SDS011;45951;45.824;8.824;2023-03-01T01:35:59;24.38;;;15.00;;
60078;SDS011;45951;45.824;8.824;2023-03-01T01:42:00;22.83;;;14.52;;
60078;SDS011;45951;45.824;8.824;2023-03-01T01:48:03;22.55;;;14.20;;
60078;SDS011;45951;45.824;8.824;2023-03-01T01:54:12;23.90;;;14.82;;
60078;SDS011;45951;45.824;8.824;2023-03-01T02:00:20;25.95;;;15.05;;
60078;SDS011;45951;45.824;8.824;2023-03-01T02:06:29;26.23;;;14.95;;
60078;SDS011;45951;45.824;8.824;2023-03-01T02:12:42;24.08;;;14.73;;
60078;SDS011;45951;45.824;8.824;2023-03-01T02:18:42;24.33;;;15.25;;
60078;SDS011;45951;45.824;8.824;2023-03-01T02:24:47;26.55;;;15.65;;
60078;SDS011;45951;45.824;8.824;2023-03-01T02:30:53;26.67;;;15.13;;
60078;SDS011;45951;45.824;8.824;2023-03-01T02:37:20;24.67;;;14.57;;
60078;SDS011;45951;45.824;8.824;2023-03-01T02:43:25;25.73;;;15.43;;
60078;SDS011;45951;45.824;8.824;2023-03-01T02:49:30;28.42;;;15.13;;
60078;SDS011;45951;45.824;8.824;2023-03-01T02:55:32;25.05;;;15.25;;
60078;SDS011;45951;45.824;8.824;2023-03-01T03:01:33;27.50;;;15.68;;
60078;SDS011;45951;45.824;8.824;2023-03-01T03:07:39;27.08;;;15.65;;
60078;SDS011;45951;45.824;8.824;2023-03-01T03:13:41;25.85;;;15.43;;
60078;SDS011;45951;45.824;8.824;2023-03-01T03:19:47;26.23;;;16.30;;
60078;SDS011;45951;45.824;8.824;2023-03-01T03:25:50;29.58;;;16.25;;
60078;SDS011;45951;45.824;8.824;2023-03-01T03:31:51;25.02;;;14.70;;
60078;SDS011;45951;45.824;8.824;2023-03-01T03:37:51;29.63;;;15.70;;
60078;SDS011;45951;45.824;8.824;2023-03-01T03:44:05;28.38;;;15.38;;
60078;SDS011;45951;45.824;8.824;2023-03-01T03:50:06;26.25;;;15.82;;
60078;SDS011;45951;45.824;8.824;2023-03-01T03:56:06;24.25;;;15.18;;
60078;SDS011;45951;45.824;8.824;2023-03-01T04:02:07;29.70;;;15.98;;
60078;SDS011;45951;45.824;8.824;2023-03-01T04:08:08;27.15;;;14.88;;
60078;SDS011;45951;45.824;8.824;2023-03-01T04:14:09;26.27;;;14.27;;
60078;SDS011;45951;45.824;8.824;2023-03-01T04:20:10;25.27;;;14.90;;
60078;SDS011;45951;45.824;8.824;2023-03-01T04:26:11;28.60;;;16.17;;
60078;SDS011;45951;45.824;8.824;2023-03-01T04:32:12;26.17;;;14.90;;
60078;SDS011;45951;45.824;8.824;2023-03-01T04:38:16;27.02;;;15.77;;
60078;SDS011;45951;45.824;8.824;2023-03-01T04:44:17;24.13;;;14.57;;
60078;SDS011;45951;45.824;8.824;2023-03-01T04:50:19;27.70;;;15.90;;
60078;SDS011;45951;45.824;8.824;2023-03-01T04:56:20;27.70;;;16.65;;
60078;SDS011;45951;45.824;8.824;2023-03-01T05:02:22;25.73;;;14.77;;
60078;SDS011;45951;45.824;8.824;2023-03-01T05:08:23;22.88;;;13.90;;
60078;SDS011;45951;45.824;8.824;2023-03-01T05:14:23;25.92;;;15.35;;
60078;SDS011;45951;45.824;8.824;2023-03-01T05:20:24;24.08;;;13.25;;
60078;SDS011;45951;45.824;8.824;2023-03-01T05:26:25;27.60;;;14.95;;
60078;SDS011;45951;45.824;8.824;2023-03-01T05:32:28;24.58;;;15.05;;
60078;SDS011;45951;45.824;8.824;2023-03-01T05:38:32;23.20;;;13.45;;
60078;SDS011;45951;45.824;8.824;2023-03-01T05:44:32;26.63;;;15.23;;
60078;SDS011;45951;45.824;8.824;2023-03-01T05:50:33;23.13;;;14.77;;
60078;SDS011;45951;45.824;8.824;2023-03-01T05:56:36;22.40;;;13.30;;
60078;SDS011;45951;45.824;8.824;2023-03-01T06:02:36;25.63;;;13.82;;
60078;SDS011;45951;45.824;8.824;2023-03-01T06:08:37;22.58;;;13.32;;
60078;SDS011;45951;45.824;8.824;2023-03-01T06:14:38;22.27;;;13.77;;
60078;SDS011;45951;45.824;8.824;2023-03-01T06:20:38;24.50;;;13.15;;
60078;SDS011;45951;45.824;8.824;2023-03-01T06:26:38;20.48;;;11.85;;
60078;SDS011;45951;45.824;8.824;2023-03-01T06:32:39;19.73;;;12.32;;
60078;SDS011;45951;45.824;8.824;2023-03-01T06:38:42;23.00;;;13.57;;
60078;SDS011;45951;45.824;8.824;2023-03-01T06:44:43;21.10;;;12.55;;
60078;SDS011;45951;45.824;8.824;2023-03-01T06:50:44;20.75;;;13.35;;
60078;SDS011;45951;45.824;8.824;2023-03-01T06:56:46;24.55;;;14.55;;
60078;SDS011;45951;45.824;8.824;2023-03-01T07:02:46;21.02;;;12.57;;
60078;SDS011;45951;45.824;8.824;2023-03-01T07:08:47;22.20;;;13.90;;
60078;SDS011;45951;45.824;8.824;2023-03-01T07:14:47;27.35;;;15.02;;
60078;SDS011;45951;45.824;8.824;2023-03-01T07:20:47;22.15;;;13.35;;
60078;SDS011;45951;45.824;8.824;2023-03-01T07:26:48;20.85;;;13.27;;
60078;SDS011;45951;45.824;8.824;2023-03-01T07:32:50;24.75;;;14.85;;
60078;SDS011;45951;45.824;8.824;2023-03-01T07:38:50;27.40;;;17.02;;
60078;SDS011;45951;45.824;8.824;2023-03-01T07:44:51;25.20;;;15.38;;
60078;SDS011;45951;45.824;8.824;2023-03-01T07:50:51;25.52;;;15.85;;
60078;SDS011;45951;45.824;8.824;2023-03-01T07:56:51;25.95;;;15.70;;
60078;SDS011;45951;45.824;8.824;2023-03-01T08:02:52;24.58;;;15.05;;
60078;SDS011;45951;45.824;8.824;2023-03-01T08:08:52;23.63;;;14.85;;
60078;SDS011;45951;45.824;8.824;2023-03-01T08:14:55;24.95;;;16.25;;
60078;SDS011;45951;45.824;8.824;2023-03-01T08:21:01;26.83;;;15.93;;
60078;SDS011;45951;45.824;8.824;2023-03-01T08:27:08;28.20;;;16.42;;
60078;SDS011;45951;45.824;8.824;2023-03-01T08:33:08;25.50;;;16.73;;
60078;SDS011;45951;45.824;8.824;2023-03-01T08:39:10;26.85;;;17.02;;
60078;SDS011;45951;45.824;8.824;2023-03-01T08:45:11;24.80;;;16.30;;
60078;SDS011;45951;45.824;8.824;2023-03-01T08:51:18;25.13;;;15.00;;
60078;SDS011;45951;45.824;8.824;2023-03-01T08:57:19;23.42;;;15.02;;
60078;SDS011;45951;45.824;8.824;2023-03-01T09:03:19;25.58;;;14.50;;
60078;SDS011;45951;45.824;8.824;2023-03-01T09:09:20;23.88;;;15.43;;
60078;SDS011;45951;45.824;8.824;2023-03-01T09:15:20;24.70;;;16.07;;
60078;SDS011;45951;45.824;8.824;2023-03-01T09:21:21;27.35;;;16.70;;
60078;SDS011;45951;45.824;8.824;2023-03-01T09:27:23;26.08;;;15.98;;
60078;SDS011;45951;45.824;8.824;2023-03-01T09:33:24;25.33;;;16.17;;
60078;SDS011;45951;45.824;8.824;2023-03-01T09:39:25;25.33;;;16.60;;
60078;SDS011;45951;45.824;8.824;2023-03-01T09:51:34;25.10;;;15.07;;
60078;SDS011;45951;45.824;8.824;2023-03-01T10:03:44;20.38;;;13.02;;
60078;SDS011;45951;45.824;8.824;2023-03-01T10:09:49;22.42;;;14.52;;
60078;SDS011;45951;45.824;8.824;2023-03-01T10:16:10;23.87;;;15.43;;
60078;SDS011;45951;45.824;8.824;2023-03-01T10:22:15;19.02;;;12.50;;
60078;SDS011;45951;45.824;8.824;2023-03-01T10:34:41;18.23;;;11.90;;
60078;SDS011;45951;45.824;8.824;2023-03-01T10:40:54;19.88;;;13.02;;
60078;SDS011;45951;45.824;8.824;2023-03-01T10:53:02;21.05;;;13.70;;
60078;SDS011;45951;45.824;8.824;2023-03-01T10:59:04;24.27;;;15.23;;
60078;SDS011;45951;45.824;8.824;2023-03-01T11:17:34;23.15;;;14.75;;
60078;SDS011;45951;45.824;8.824;2023-03-01T11:23:38;22.98;;;15.60;;
60078;SDS011;45951;45.824;8.824;2023-03-01T11:29:40;22.52;;;14.30;;
60078;SDS011;45951;45.824;8.824;2023-03-01T11:35:45;25.08;;;15.20;;
60078;SDS011;45951;45.824;8.824;2023-03-01T11:41:50;22.30;;;14.60;;
60078;SDS011;45951;45.824;8.824;2023-03-01T12:00:59;19.67;;;13.13;;
60078;SDS011;45951;45.824;8.824;2023-03-01T12:07:14;19.60;;;12.70;;
60078;SDS011;45951;45.824;8.824;2023-03-01T12:13:26;18.73;;;12.48;;
60078;SDS011;45951;45.824;8.824;2023-03-01T12:38:45;17.55;;;11.65;;
60078;SDS011;45951;45.824;8.824;2023-03-01T12:45:02;18.70;;;12.30;;
60078;SDS011;45951;45.824;8.824;2023-03-01T12:51:26;18.55;;;12.15;;
60078;SDS011;45951;45.824;8.824;2023-03-01T13:22:43;19.23;;;12.75;;
60078;SDS011;45951;45.824;8.824;2023-03-01T13:34:50;20.80;;;13.95;;
60078;SDS011;45951;45.824;8.824;2023-03-01T13:53:06;19.27;;;12.30;;
60078;SDS011;45951;45.824;8.824;2023-03-01T13:59:13;21.42;;;13.02;;
60078;SDS011;45951;45.824;8.824;2023-03-01T14:05:15;20.73;;;14.35;;
60078;SDS011;45951;45.824;8.824;2023-03-01T14:29:38;18.98;;;12.98;;
60078;SDS011;45951;45.824;8.824;2023-03-01T14:35:40;23.10;;;12.85;;
60078;SDS011;45951;45.824;8.824;2023-03-01T14:41:40;21.65;;;13.98;;
60078;SDS011;45951;45.824;8.824;2023-03-01T14:47:40;19.65;;;11.75;;
60078;SDS011;45951;45.824;8.824;2023-03-01T14:53:41;16.23;;;9.63;;
60078;SDS011;45951;45.824;8.824;2023-03-01T14:59:42;17.85;;;12.18;;
60078;SDS011;45951;45.824;8.824;2023-03-01T15:05:43;19.65;;;11.60;;
60078;SDS011;45951;45.824;8.824;2023-03-01T15:11:44;18.08;;;11.68;;
60078;SDS011;45951;45.824;8.824;2023-03-01T15:17:48;21.05;;;13.57;;
60078;SDS011;45951;45.824;8.824;2023-03-01T15:23:52;20.65;;;11.32;;
60078;SDS011;45951;45.824;8.824;2023-03-01T15:30:00;19.43;;;12.03;;
60078;SDS011;45951;45.824;8.824;2023-03-01T15:36:03;21.13;;;13.88;;
60078;SDS011;45951;45.824;8.824;2023-03-01T15:48:33;20.23;;;12.98;;
60078;SDS011;45951;45.824;8.824;2023-03-01T15:54:33;21.05;;;13.50;;
60078;SDS011;45951;45.824;8.824;2023-03-01T16:00:34;19.77;;;13.00;;
60078;SDS011;45951;45.824;8.824;2023-03-01T16:06:34;21.42;;;12.80;;
60078;SDS011;45951;45.824;8.824;2023-03-01T16:12:35;19.50;;;12.80;;
60078;SDS011;45951;45.824;8.824;2023-03-01T16:18:35;24.73;;;13.63;;
60078;SDS011;45951;45.824;8.824;2023-03-01T16:24:36;35.78;;;21.50;;
60078;SDS011;45951;45.824;8.824;2023-03-01T16:30:37;22.85;;;14.90;;
60078;SDS011;45951;45.824;8.824;2023-03-01T16:36:38;23.98;;;15.38;;
60078;SDS011;45951;45.824;8.824;2023-03-01T16:42:38;24.25;;;14.90;;
60078;SDS011;45951;45.824;8.824;2023-03-01T16:48:38;23.88;;;13.35;;
60078;SDS011;45951;45.824;8.824;2023-03-01T16:54:39;22.98;;;13.35;;
60078;SDS011;45951;45.824;8.824;2023-03-01T17:00:40;22.70;;;14.20;;
60078;SDS011;45951;45.824;8.824;2023-03-01T17:06:41;22.25;;;13.77;;
60078;SDS011;45951;45.824;8.824;2023-03-01T17:12:42;22.55;;;13.98;;
60078;SDS011;45951;45.824;8.824;2023-03-01T17:18:42;23.50;;;14.18;;
60078;SDS011;45951;45.824;8.824;2023-03-01T17:24:43;25.10;;;15.35;;
60078;SDS011;45951;45.824;8.824;2023-03-01T17:30:44;22.80;;;14.05;;
60078;SDS011;45951;45.824;8.824;2023-03-01T17:36:46;24.35;;;15.73;;
60078;SDS011;45951;45.824;8.824;2023-03-01T17:42:49;25.33;;;15.95;;
60078;SDS011;45951;45.824;8.824;2023-03-01T17:48:49;25.88;;;16.10;;
60078;SDS011;45951;45.824;8.824;2023-03-01T17:54:50;27.10;;;15.13;;
60078;SDS011;45951;45.824;8.824;2023-03-01T18:00:50;25.98;;;14.20;;
60078;SDS011;45951;45.824;8.824;2023-03-01T18:06:50;30.08;;;17.35;;
60078;SDS011;45951;45.824;8.824;2023-03-01T18:12:51;24.95;;;14.82;;
60078;SDS011;45951;45.824;8.824;2023-03-01T18:18:52;27.27;;;16.48;;
60078;SDS011;45951;45.824;8.824;2023-03-01T18:24:53;25.95;;;16.95;;
60078;SDS011;45951;45.824;8.824;2023-03-01T18:31:01;27.20;;;15.87;;
60078;SDS011;45951;45.824;8.824;2023-03-01T18:37:02;28.20;;;16.55;;
60078;SDS011;45951;45.824;8.824;2023-03-01T18:43:03;25.55;;;16.23;;
60078;SDS011;45951;45.824;8.824;2023-03-01T18:49:04;23.17;;;12.82;;
60078;SDS011;45951;45.824;8.824;2023-03-01T18:55:05;23.73;;;15.00;;
60078;SDS011;45951;45.824;8.824;2023-03-01T19:01:10;25.73;;;15.43;;
60078;SDS011;45951;45.824;8.824;2023-03-01T19:07:12;24.10;;;14.45;;
60078;SDS011;45951;45.824;8.824;2023-03-01T19:13:13;27.63;;;14.15;;
60078;SDS011;45951;45.824;8.824;2023-03-01T19:19:13;22.15;;;13.75;;
60078;SDS011;45951;45.824;8.824;2023-03-01T19:25:13;24.00;;;14.57;;
60078;SDS011;45951;45.824;8.824;2023-03-01T19:31:14;22.45;;;13.60;;
60078;SDS011;45951;45.824;8.824;2023-03-01T19:37:25;21.67;;;13.77;;
60078;SDS011;45951;45.824;8.824;2023-03-01T19:43:25;25.63;;;14.73;;
60078;SDS011;45951;45.824;8.824;2023-03-01T19:49:26;23.58;;;14.18;;
60078;SDS011;45951;45.824;8.824;2023-03-01T19:55:28;23.58;;;13.48;;
60078;SDS011;45951;45.824;8.824;2023-03-01T20:01:28;22.88;;;13.52;;
60078;SDS011;45951;45.824;8.824;2023-03-01T20:07:29;23.50;;;12.95;;
60078;SDS011;45951;45.824;8.824;2023-03-01T20:13:29;21.92;;;13.27;;
60078;SDS011;45951;45.824;8.824;2023-03-01T20:19:30;23.77;;;13.70;;
60078;SDS011;45951;45.824;8.824;2023-03-01T20:25:30;22.95;;;13.75;;
60078;SDS011;45951;45.824;8.824;2023-03-01T20:31:30;20.20;;;12.55;;
60078;SDS011;45951;45.824;8.824;2023-03-01T20:37:31;24.95;;;14.50;;
60078;SDS011;45951;45.824;8.824;2023-03-01T20:43:31;22.52;;;13.68;;
60078;SDS011;45951;45.824;8.824;2023-03-01T20:49:32;24.85;;;15.07;;
60078;SDS011;45951;45.824;8.824;2023-03-01T20:55:32;27.05;;;16.08;;
60078;SDS011;45951;45.824;8.824;2023-03-01T21:01:32;26.63;;;14.80;;
60078;SDS011;45951;45.824;8.824;2023-03-01T21:07:33;25.92;;;15.15;;
60078;SDS011;45951;45.824;8.824;2023-03-01T21:13:33;26.35;;;14.50;;
60078;SDS011;45951;45.824;8.824;2023-03-01T21:19:37;25.80;;;15.40;;
60078;SDS011;45951;45.824;8.824;2023-03-01T21:25:38;27.67;;;16.67;;
60078;SDS011;45951;45.824;8.824;2023-03-01T21:31:39;26.08;;;15.45;;
60078;SDS011;45951;45.824;8.824;2023-03-01T21:37:39;28.63;;;16.38;;
60078;SDS011;45951;45.824;8.824;2023-03-01T21:43:40;26.27;;;15.40;;
60078;SDS011;45951;45.824;8.824;2023-03-01T21:49:41;26.08;;;15.30;;
60078;SDS011;45951;45.824;8.824;2023-03-01T21:55:45;29.00;;;15.80;;
60078;SDS011;45951;45.824;8.824;2023-03-01T22:01:46;29.60;;;17.88;;
60078;SDS011;45951;45.824;8.824;2023-03-01T22:07:47;27.38;;;15.82;;
60078;SDS011;45951;45.824;8.824;2023-03-01T22:13:48;28.70;;;17.58;;
60078;SDS011;45951;45.824;8.824;2023-03-01T22:19:50;27.05;;;17.20;;
60078;SDS011;45951;45.824;8.824;2023-03-01T22:25:51;30.45;;;18.92;;
60078;SDS011;45951;45.824;8.824;2023-03-01T22:31:51;31.75;;;19.10;;
60078;SDS011;45951;45.824;8.824;2023-03-01T22:37:52;29.88;;;18.02;;
60078;SDS011;45951;45.824;8.824;2023-03-01T22:43:52;30.17;;;19.52;;
60078;SDS011;45951;45.824;8.824;2023-03-01T22:49:53;30.35;;;19.65;;
60078;SDS011;45951;45.824;8.824;2023-03-01T22:55:55;30.40;;;18.48;;
60078;SDS011;45951;45.824;8.824;2023-03-01T23:01:55;29.77;;;18.13;;
60078;SDS011;45951;45.824;8.824;2023-03-01T23:07:56;30.92;;;17.65;;
60078;SDS011;45951;45.824;8.824;2023-03-01T23:13:57;29.63;;;18.38;;
60078;SDS011;45951;45.824;8.824;2023-03-01T23:19:57;30.10;;;18.48;;
60078;SDS011;45951;45.824;8.824;2023-03-01T23:25:57;30.60;;;18.60;;
60078;SDS011;45951;45.824;8.824;2023-03-01T23:31:58;30.48;;;18.70;;
60078;SDS011;45951;45.824;8.824;2023-03-01T23:37:58;29.38;;;18.75;;
60078;SDS011;45951;45.824;8.824;2023-03-01T23:43:59;34.17;;;20.10;;
60078;SDS011;45951;45.824;8.824;2023-03-01T23:50:01;29.52;;;18.10;;
60078;SDS011;45951;45.824;8.824;2023-03-01T23:56:02;32.83;;;19.60;;
